DLH156 EDDM-EDDH
Flight info
| Callsign | DLH156 |
|---|---|
| Flight time | 1h 5m |
| Altitude | 36000 |
| Route | INPUD3Q/08L INPUD Y102 UPALA M726 NARUS DCT ABGUS DCT DIRBO/N0453F230 T902 RARUP RARUP3D |
| Aircraft | A359/H-SDE2E3GHIJ3J4J5LM1ORWXY/LB1D1 |
Departure
| Time | 2026-05-01 07:36 |
|---|---|
| Airport | Munich Airport (EDDM) |
Arrival
| Time | 2026-05-01 08:41 |
|---|---|
| Airport | Hamburg Helmut Schmidt Airport (EDDH) |
| Time | Latitude | Longitude | Altitude | Speed | Heading |
|---|---|---|---|---|---|
| 2026-05-01 07:23 | 48.35696 | 11.79691 | 1473 ft | 0 kts | 78° |
| 2026-05-01 07:24 | 48.35694 | 11.79676 | 1461 ft | 1 kts | 78° |
| 2026-05-01 07:24 | 48.35692 | 11.79663 | 1461 ft | 0 kts | 78° |
| 2026-05-01 07:25 | 48.35690 | 11.79647 | 1467 ft | 3 kts | 78° |
| 2026-05-01 07:25 | 48.35686 | 11.79621 | 1464 ft | 3 kts | 70° |
| 2026-05-01 07:25 | 48.35680 | 11.79594 | 1461 ft | 3 kts | 49° |
| 2026-05-01 07:25 | 48.35667 | 11.79574 | 1461 ft | 3 kts | 35° |
| 2026-05-01 07:26 | 48.35651 | 11.79560 | 1461 ft | 3 kts | 6° |
| 2026-05-01 07:26 | 48.35641 | 11.79559 | 1461 ft | 0 kts | 353° |
| 2026-05-01 07:28 | 48.35653 | 11.79557 | 1461 ft | 7 kts | 353° |
| 2026-05-01 07:28 | 48.35714 | 11.79546 | 1469 ft | 10 kts | 353° |
| 2026-05-01 07:28 | 48.35783 | 11.79534 | 1467 ft | 12 kts | 353° |
| 2026-05-01 07:29 | 48.35839 | 11.79524 | 1471 ft | 13 kts | 353° |
| 2026-05-01 07:29 | 48.35934 | 11.79507 | 1468 ft | 15 kts | 354° |
| 2026-05-01 07:29 | 48.36039 | 11.79489 | 1470 ft | 13 kts | 354° |
| 2026-05-01 07:29 | 48.36098 | 11.79415 | 1462 ft | 12 kts | 279° |
| 2026-05-01 07:30 | 48.36088 | 11.79281 | 1466 ft | 15 kts | 263° |
| 2026-05-01 07:30 | 48.36073 | 11.79086 | 1467 ft | 20 kts | 263° |
| 2026-05-01 07:30 | 48.36056 | 11.78865 | 1468 ft | 22 kts | 263° |
| 2026-05-01 07:30 | 48.36037 | 11.78626 | 1469 ft | 24 kts | 263° |
| 2026-05-01 07:31 | 48.36017 | 11.78370 | 1468 ft | 25 kts | 263° |
| 2026-05-01 07:31 | 48.35979 | 11.77870 | 1464 ft | 18 kts | 263° |
| 2026-05-01 07:32 | 48.35948 | 11.77465 | 1462 ft | 21 kts | 264° |
| 2026-05-01 07:32 | 48.35931 | 11.77235 | 1465 ft | 23 kts | 264° |
| 2026-05-01 07:33 | 48.35947 | 11.76857 | 1462 ft | 19 kts | 315° |
| 2026-05-01 07:33 | 48.36043 | 11.76811 | 1467 ft | 3 kts | 354° |
| 2026-05-01 07:33 | 48.36117 | 11.76798 | 1466 ft | 3 kts | 353° |
| 2026-05-01 07:34 | 48.36206 | 11.76785 | 1464 ft | 20 kts | 2° |
| 2026-05-01 07:34 | 48.36291 | 11.76916 | 1463 ft | 17 kts | 83° |
| 2026-05-01 07:35 | 48.36294 | 11.76950 | 1463 ft | 0 kts | 83° |
| 2026-05-01 07:35 | 48.36298 | 11.77002 | 1468 ft | 22 kts | 83° |
| 2026-05-01 07:35 | 48.36340 | 11.77568 | 1468 ft | 85 kts | 83° |
| 2026-05-01 07:35 | 48.36432 | 11.78744 | 1469 ft | 138 kts | 83° |
| 2026-05-01 07:36 | 48.36548 | 11.80317 | 1861 ft | 151 kts | 85° |
| 2026-05-01 07:36 | 48.36642 | 11.81859 | 2549 ft | 152 kts | 86° |
| 2026-05-01 07:36 | 48.36752 | 11.83499 | 3047 ft | 166 kts | 84° |
| 2026-05-01 07:36 | 48.36930 | 11.85339 | 3340 ft | 190 kts | 78° |
| 2026-05-01 07:37 | 48.39377 | 11.87652 | 4035 ft | 254 kts | 4° |
| 2026-05-01 07:37 | 48.41162 | 11.87228 | 4657 ft | 270 kts | 339° |
| 2026-05-01 07:37 | 48.42728 | 11.85606 | 5419 ft | 278 kts | 316° |
| 2026-05-01 07:38 | 48.43978 | 11.83352 | 6264 ft | 281 kts | 309° |
| 2026-05-01 07:38 | 48.45162 | 11.81036 | 7086 ft | 284 kts | 310° |
| 2026-05-01 07:38 | 48.47669 | 11.76376 | 8808 ft | 287 kts | 312° |
| 2026-05-01 07:39 | 48.48962 | 11.74050 | 9641 ft | 291 kts | 313° |
| 2026-05-01 07:39 | 48.50273 | 11.71712 | 10471 ft | 294 kts | 313° |
| 2026-05-01 07:39 | 48.52961 | 11.66959 | 12047 ft | 300 kts | 313° |
| 2026-05-01 07:40 | 48.54330 | 11.64540 | 12827 ft | 304 kts | 314° |
| 2026-05-01 07:40 | 48.55712 | 11.62099 | 13584 ft | 307 kts | 314° |
| 2026-05-01 07:40 | 48.57237 | 11.59905 | 14297 ft | 306 kts | 329° |
| 2026-05-01 07:40 | 48.59155 | 11.58433 | 14723 ft | 316 kts | 342° |
| 2026-05-01 07:41 | 48.61255 | 11.57229 | 15023 ft | 331 kts | 343° |
| 2026-05-01 07:41 | 48.63471 | 11.55989 | 15357 ft | 347 kts | 343° |
| 2026-05-01 07:41 | 48.68187 | 11.53304 | 16000 ft | 375 kts | 342° |
| 2026-05-01 07:42 | 48.70656 | 11.51889 | 16469 ft | 384 kts | 342° |
| 2026-05-01 07:42 | 48.73181 | 11.50432 | 17072 ft | 388 kts | 342° |
| 2026-05-01 07:42 | 48.75691 | 11.48977 | 17712 ft | 392 kts | 342° |
| 2026-05-01 07:42 | 48.78252 | 11.47487 | 18366 ft | 396 kts | 343° |
| 2026-05-01 07:43 | 48.80833 | 11.45982 | 18850 ft | 399 kts | 343° |
| 2026-05-01 07:43 | 48.83440 | 11.44461 | 19239 ft | 402 kts | 343° |
| 2026-05-01 07:43 | 48.88675 | 11.41403 | 19396 ft | 404 kts | 342° |
| 2026-05-01 07:44 | 48.93968 | 11.38310 | 19955 ft | 410 kts | 342° |
| 2026-05-01 07:44 | 48.99305 | 11.35186 | 21282 ft | 414 kts | 342° |
| 2026-05-01 07:45 | 49.02000 | 11.33607 | 21903 ft | 417 kts | 342° |
| 2026-05-01 07:45 | 49.04766 | 11.32292 | 22505 ft | 416 kts | 351° |
| 2026-05-01 07:45 | 49.07624 | 11.31607 | 23115 ft | 417 kts | 356° |
| 2026-05-01 07:45 | 49.10517 | 11.31164 | 23720 ft | 419 kts | 358° |
| 2026-05-01 07:46 | 49.13446 | 11.30855 | 24253 ft | 422 kts | 359° |
| 2026-05-01 07:46 | 49.16384 | 11.30613 | 24775 ft | 425 kts | 360° |
| 2026-05-01 07:46 | 49.22286 | 11.30171 | 25794 ft | 430 kts | 360° |
| 2026-05-01 07:47 | 49.25280 | 11.29936 | 26315 ft | 432 kts | 359° |
| 2026-05-01 07:47 | 49.28294 | 11.29687 | 26819 ft | 435 kts | 359° |
| 2026-05-01 07:47 | 49.31328 | 11.29428 | 27305 ft | 437 kts | 359° |
| 2026-05-01 07:47 | 49.34375 | 11.29161 | 27817 ft | 440 kts | 359° |
| 2026-05-01 07:48 | 49.40502 | 11.28620 | 28766 ft | 445 kts | 359° |
| 2026-05-01 07:48 | 49.43606 | 11.28345 | 29217 ft | 448 kts | 359° |
| 2026-05-01 07:48 | 49.46734 | 11.28068 | 29638 ft | 451 kts | 359° |
| 2026-05-01 07:49 | 49.49882 | 11.27790 | 30074 ft | 453 kts | 359° |
| 2026-05-01 07:49 | 49.56214 | 11.27229 | 30809 ft | 458 kts | 358° |
| 2026-05-01 07:49 | 49.59376 | 11.26949 | 31054 ft | 462 kts | 358° |
| 2026-05-01 07:50 | 49.62600 | 11.26663 | 31372 ft | 464 kts | 358° |
| 2026-05-01 07:50 | 49.69079 | 11.26086 | 32010 ft | 468 kts | 358° |
| 2026-05-01 07:50 | 49.72340 | 11.25795 | 32380 ft | 468 kts | 358° |
| 2026-05-01 07:51 | 49.75582 | 11.25505 | 32836 ft | 466 kts | 358° |
| 2026-05-01 07:51 | 49.78815 | 11.25215 | 33310 ft | 463 kts | 358° |
| 2026-05-01 07:51 | 49.82027 | 11.24926 | 33758 ft | 461 kts | 358° |
| 2026-05-01 07:52 | 49.88378 | 11.24264 | 34565 ft | 459 kts | 357° |
| 2026-05-01 07:52 | 49.91571 | 11.23844 | 34818 ft | 460 kts | 356° |
| 2026-05-01 07:52 | 49.94764 | 11.23408 | 35069 ft | 460 kts | 356° |
| 2026-05-01 07:53 | 50.01130 | 11.22552 | 35654 ft | 459 kts | 356° |
| 2026-05-01 07:53 | 50.04318 | 11.22135 | 35926 ft | 459 kts | 357° |
| 2026-05-01 07:53 | 50.07495 | 11.21726 | 36218 ft | 458 kts | 357° |
| 2026-05-01 07:53 | 50.10682 | 11.21319 | 36397 ft | 459 kts | 357° |
| 2026-05-01 07:55 | 50.26613 | 11.19284 | 36433 ft | 460 kts | 356° |
| 2026-05-01 07:56 | 50.42600 | 11.17224 | 36441 ft | 461 kts | 356° |
| 2026-05-01 07:57 | 50.52203 | 11.15979 | 36442 ft | 464 kts | 356° |
| 2026-05-01 07:58 | 50.65104 | 11.14299 | 36438 ft | 464 kts | 356° |
| 2026-05-01 07:59 | 50.77997 | 11.12611 | 36443 ft | 465 kts | 356° |
| 2026-05-01 08:00 | 50.96236 | 11.10206 | 36464 ft | 465 kts | 356° |
| 2026-05-01 08:01 | 51.09165 | 11.08492 | 36456 ft | 466 kts | 356° |
| 2026-05-01 08:02 | 51.18834 | 11.07202 | 36456 ft | 467 kts | 356° |
| 2026-05-01 08:03 | 51.28560 | 11.05899 | 36450 ft | 467 kts | 356° |
| 2026-05-01 08:03 | 51.38287 | 11.04592 | 36436 ft | 469 kts | 355° |
| 2026-05-01 08:04 | 51.51307 | 11.02832 | 36430 ft | 469 kts | 355° |
| 2026-05-01 08:05 | 51.61050 | 11.01508 | 36443 ft | 471 kts | 355° |
| 2026-05-01 08:06 | 51.70861 | 11.00170 | 36426 ft | 471 kts | 355° |
| 2026-05-01 08:07 | 51.83941 | 10.98376 | 36443 ft | 472 kts | 355° |
| 2026-05-01 08:08 | 51.93727 | 10.97027 | 36424 ft | 472 kts | 355° |
| 2026-05-01 08:09 | 52.06835 | 10.95212 | 36426 ft | 473 kts | 355° |
| 2026-05-01 08:09 | 52.13402 | 10.94298 | 36431 ft | 473 kts | 355° |
| 2026-05-01 08:10 | 52.26519 | 10.92464 | 36426 ft | 473 kts | 355° |
| 2026-05-01 08:11 | 52.39677 | 10.90615 | 36444 ft | 475 kts | 355° |
| 2026-05-01 08:12 | 52.49530 | 10.89223 | 36437 ft | 475 kts | 355° |
| 2026-05-01 08:12 | 52.56119 | 10.88288 | 36278 ft | 472 kts | 355° |
| 2026-05-01 08:13 | 52.59390 | 10.87822 | 35505 ft | 473 kts | 355° |
| 2026-05-01 08:13 | 52.62689 | 10.87352 | 34575 ft | 479 kts | 355° |
| 2026-05-01 08:13 | 52.69384 | 10.86396 | 32579 ft | 487 kts | 355° |
| 2026-05-01 08:14 | 52.72743 | 10.85916 | 31599 ft | 490 kts | 356° |
| 2026-05-01 08:14 | 52.76149 | 10.85428 | 30625 ft | 494 kts | 356° |
| 2026-05-01 08:14 | 52.79587 | 10.84935 | 29537 ft | 497 kts | 356° |
| 2026-05-01 08:14 | 52.83027 | 10.84440 | 28671 ft | 495 kts | 356° |
| 2026-05-01 08:15 | 52.86454 | 10.83867 | 27944 ft | 491 kts | 354° |
| 2026-05-01 08:15 | 52.93175 | 10.82442 | 26625 ft | 482 kts | 354° |
| 2026-05-01 08:15 | 52.96475 | 10.81747 | 25838 ft | 471 kts | 354° |
| 2026-05-01 08:16 | 52.99699 | 10.81075 | 24602 ft | 464 kts | 354° |
| 2026-05-01 08:16 | 53.02880 | 10.80418 | 23580 ft | 454 kts | 354° |
| 2026-05-01 08:16 | 53.05936 | 10.79787 | 23030 ft | 432 kts | 354° |
| 2026-05-01 08:16 | 53.08855 | 10.79184 | 22514 ft | 412 kts | 355° |
| 2026-05-01 08:17 | 53.11693 | 10.78602 | 21994 ft | 413 kts | 355° |
| 2026-05-01 08:17 | 53.14554 | 10.78017 | 21458 ft | 414 kts | 355° |
| 2026-05-01 08:17 | 53.17416 | 10.77430 | 20907 ft | 412 kts | 355° |
| 2026-05-01 08:17 | 53.20255 | 10.76845 | 20373 ft | 410 kts | 355° |
| 2026-05-01 08:18 | 53.23078 | 10.76263 | 19813 ft | 408 kts | 355° |
| 2026-05-01 08:18 | 53.28684 | 10.75105 | 18733 ft | 403 kts | 355° |
| 2026-05-01 08:19 | 53.34193 | 10.73964 | 17595 ft | 401 kts | 355° |
| 2026-05-01 08:19 | 53.36956 | 10.73390 | 16947 ft | 400 kts | 355° |
| 2026-05-01 08:19 | 53.39738 | 10.72813 | 16065 ft | 406 kts | 355° |
| 2026-05-01 08:19 | 53.42551 | 10.72227 | 15447 ft | 405 kts | 355° |
| 2026-05-01 08:20 | 53.45155 | 10.71684 | 14910 ft | 403 kts | 355° |
| 2026-05-01 08:20 | 53.47179 | 10.71261 | 14502 ft | 402 kts | 355° |
| 2026-05-01 08:20 | 53.49946 | 10.70681 | 13898 ft | 399 kts | 355° |
| 2026-05-01 08:20 | 53.52699 | 10.70105 | 13323 ft | 395 kts | 355° |
| 2026-05-01 08:21 | 53.55421 | 10.69536 | 12761 ft | 391 kts | 355° |
| 2026-05-01 08:21 | 53.58117 | 10.68971 | 12204 ft | 388 kts | 355° |
| 2026-05-01 08:21 | 53.60783 | 10.68408 | 11648 ft | 385 kts | 355° |
| 2026-05-01 08:21 | 53.63389 | 10.67426 | 11097 ft | 385 kts | 342° |
| 2026-05-01 08:22 | 53.65688 | 10.65176 | 10782 ft | 384 kts | 322° |
| 2026-05-01 08:22 | 53.67689 | 10.62134 | 10649 ft | 389 kts | 318° |
| 2026-05-01 08:22 | 53.69622 | 10.59017 | 10478 ft | 389 kts | 317° |
| 2026-05-01 08:22 | 53.71566 | 10.55865 | 10318 ft | 383 kts | 317° |
| 2026-05-01 08:23 | 53.73451 | 10.52806 | 10143 ft | 367 kts | 317° |
| 2026-05-01 08:23 | 53.75251 | 10.49887 | 9959 ft | 352 kts | 317° |
| 2026-05-01 08:23 | 53.76990 | 10.47065 | 9761 ft | 339 kts | 317° |
| 2026-05-01 08:23 | 53.78657 | 10.44364 | 9588 ft | 326 kts | 317° |
| 2026-05-01 08:24 | 53.80266 | 10.41758 | 9430 ft | 313 kts | 317° |
| 2026-05-01 08:24 | 53.81810 | 10.39256 | 9286 ft | 302 kts | 317° |
| 2026-05-01 08:24 | 53.83306 | 10.36829 | 9161 ft | 297 kts | 317° |
| 2026-05-01 08:24 | 53.84799 | 10.34401 | 9037 ft | 297 kts | 317° |
| 2026-05-01 08:25 | 53.86274 | 10.32001 | 8890 ft | 289 kts | 316° |
| 2026-05-01 08:25 | 53.87677 | 10.29716 | 8770 ft | 278 kts | 317° |
| 2026-05-01 08:25 | 53.88914 | 10.27286 | 8606 ft | 268 kts | 300° |
| 2026-05-01 08:25 | 53.89400 | 10.24351 | 8448 ft | 256 kts | 267° |
| 2026-05-01 08:26 | 53.89150 | 10.21367 | 8556 ft | 267 kts | 256° |
| 2026-05-01 08:26 | 53.88408 | 10.18370 | 8570 ft | 283 kts | 231° |
| 2026-05-01 08:26 | 53.86890 | 10.16323 | 8507 ft | 280 kts | 199° |
| 2026-05-01 08:26 | 53.85003 | 10.15850 | 8299 ft | 274 kts | 176° |
| 2026-05-01 08:27 | 53.83096 | 10.15973 | 8054 ft | 274 kts | 176° |
| 2026-05-01 08:27 | 53.81181 | 10.16047 | 7806 ft | 274 kts | 177° |
| 2026-05-01 08:27 | 53.79273 | 10.16030 | 7558 ft | 274 kts | 179° |
| 2026-05-01 08:27 | 53.77401 | 10.15922 | 7345 ft | 271 kts | 181° |
| 2026-05-01 08:28 | 53.75553 | 10.15721 | 7213 ft | 261 kts | 182° |
| 2026-05-01 08:28 | 53.73779 | 10.15456 | 7086 ft | 250 kts | 184° |
| 2026-05-01 08:28 | 53.72085 | 10.15129 | 6967 ft | 240 kts | 185° |
| 2026-05-01 08:28 | 53.70461 | 10.14585 | 6942 ft | 239 kts | 196° |
| 2026-05-01 08:29 | 53.68932 | 10.13429 | 6990 ft | 242 kts | 205° |
| 2026-05-01 08:29 | 53.67459 | 10.12046 | 6992 ft | 243 kts | 207° |
| 2026-05-01 08:29 | 53.65999 | 10.10608 | 6991 ft | 243 kts | 208° |
| 2026-05-01 08:29 | 53.64544 | 10.09150 | 6992 ft | 243 kts | 208° |
| 2026-05-01 08:30 | 53.63036 | 10.07634 | 7005 ft | 264 kts | 208° |
| 2026-05-01 08:30 | 53.61419 | 10.06005 | 7000 ft | 274 kts | 208° |
| 2026-05-01 08:30 | 53.59779 | 10.04344 | 6994 ft | 276 kts | 208° |
| 2026-05-01 08:30 | 53.58150 | 10.02690 | 6992 ft | 276 kts | 208° |
| 2026-05-01 08:31 | 53.56505 | 10.01021 | 6995 ft | 276 kts | 208° |
| 2026-05-01 08:31 | 53.54851 | 9.99349 | 6997 ft | 280 kts | 208° |
| 2026-05-01 08:31 | 53.53108 | 9.97595 | 7001 ft | 302 kts | 208° |
| 2026-05-01 08:31 | 53.51333 | 9.95617 | 6897 ft | 308 kts | 216° |
| 2026-05-01 08:32 | 53.49793 | 9.93112 | 6418 ft | 309 kts | 225° |
| 2026-05-01 08:32 | 53.48375 | 9.90417 | 5935 ft | 307 kts | 227° |
| 2026-05-01 08:32 | 53.46987 | 9.87705 | 5490 ft | 304 kts | 227° |
| 2026-05-01 08:32 | 53.45618 | 9.85016 | 5036 ft | 301 kts | 227° |
| 2026-05-01 08:33 | 53.44268 | 9.82353 | 4601 ft | 298 kts | 227° |
| 2026-05-01 08:33 | 53.42939 | 9.79735 | 4334 ft | 290 kts | 227° |
| 2026-05-01 08:33 | 53.41662 | 9.77213 | 4175 ft | 278 kts | 227° |
| 2026-05-01 08:33 | 53.40456 | 9.74754 | 4027 ft | 268 kts | 232° |
| 2026-05-01 08:34 | 53.39614 | 9.72062 | 3967 ft | 255 kts | 249° |
| 2026-05-01 08:34 | 53.39381 | 9.69206 | 3958 ft | 243 kts | 275° |
| 2026-05-01 08:34 | 53.40006 | 9.66687 | 3986 ft | 239 kts | 307° |
| 2026-05-01 08:34 | 53.41102 | 9.64586 | 3966 ft | 241 kts | 315° |
| 2026-05-01 08:35 | 53.42452 | 9.62932 | 3963 ft | 242 kts | 340° |
| 2026-05-01 08:35 | 53.44090 | 9.62770 | 3989 ft | 236 kts | 18° |
| 2026-05-01 08:35 | 53.45548 | 9.63955 | 4000 ft | 233 kts | 39° |
| 2026-05-01 08:35 | 53.46673 | 9.65763 | 3984 ft | 216 kts | 53° |
| 2026-05-01 08:36 | 53.47579 | 9.67651 | 3991 ft | 199 kts | 54° |
| 2026-05-01 08:36 | 53.48437 | 9.69407 | 3974 ft | 192 kts | 53° |
| 2026-05-01 08:36 | 53.49285 | 9.71124 | 3816 ft | 190 kts | 53° |
| 2026-05-01 08:36 | 53.50134 | 9.72840 | 3708 ft | 192 kts | 53° |
| 2026-05-01 08:37 | 53.50961 | 9.74575 | 3603 ft | 192 kts | 54° |
| 2026-05-01 08:37 | 53.51817 | 9.76289 | 3330 ft | 192 kts | 51° |
| 2026-05-01 08:37 | 53.52701 | 9.77972 | 3055 ft | 191 kts | 52° |
| 2026-05-01 08:37 | 53.53556 | 9.79673 | 2821 ft | 189 kts | 53° |
| 2026-05-01 08:38 | 53.54391 | 9.81346 | 2543 ft | 185 kts | 52° |
| 2026-05-01 08:38 | 53.55211 | 9.82975 | 2306 ft | 179 kts | 51° |
| 2026-05-01 08:38 | 53.56016 | 9.84526 | 1984 ft | 172 kts | 53° |
| 2026-05-01 08:38 | 53.56753 | 9.86054 | 1728 ft | 165 kts | 53° |
| 2026-05-01 08:39 | 53.57453 | 9.87515 | 1459 ft | 157 kts | 53° |
| 2026-05-01 08:39 | 53.58131 | 9.88920 | 1242 ft | 151 kts | 53° |
| 2026-05-01 08:39 | 53.58784 | 9.90237 | 1039 ft | 144 kts | 52° |
| 2026-05-01 08:39 | 53.59436 | 9.91533 | 849 ft | 145 kts | 52° |
| 2026-05-01 08:40 | 53.60725 | 9.94141 | 397 ft | 143 kts | 51° |
| 2026-05-01 08:40 | 53.61357 | 9.95424 | 244 ft | 141 kts | 52° |
| 2026-05-01 08:40 | 53.61992 | 9.96699 | 91 ft | 142 kts | 52° |
| 2026-05-01 08:41 | 53.62589 | 9.97912 | 47 ft | 125 kts | 52° |
| 2026-05-01 08:41 | 53.63001 | 9.98750 | 44 ft | 63 kts | 50° |
| 2026-05-01 08:41 | 53.63092 | 9.99100 | 49 ft | 23 kts | 89° |
| 2026-05-01 08:41 | 53.63089 | 9.99204 | 46 ft | 0 kts | 94° |
| 2026-05-01 08:42 | 53.63088 | 9.99215 | 46 ft | 6 kts | 94° |
| 2026-05-01 08:42 | 53.63096 | 9.99370 | 48 ft | 15 kts | 75° |
| 2026-05-01 08:42 | 53.63150 | 9.99522 | 47 ft | 16 kts | 52° |
| 2026-05-01 08:42 | 53.63219 | 9.99676 | 46 ft | 16 kts | 67° |
| 2026-05-01 08:43 | 53.63177 | 9.99807 | 47 ft | 14 kts | 150° |
| 2026-05-01 08:43 | 53.63085 | 9.99883 | 47 ft | 15 kts | 154° |
| 2026-05-01 08:43 | 53.62988 | 9.99964 | 48 ft | 16 kts | 154° |
| 2026-05-01 08:43 | 53.62914 | 10.00048 | 48 ft | 12 kts | 114° |
| 2026-05-01 08:44 | 53.62950 | 10.00129 | 47 ft | 5 kts | 37° |
| 2026-05-01 08:44 | 53.62974 | 10.00179 | 48 ft | 6 kts | 73° |
| 2026-05-01 08:44 | 53.62961 | 10.00245 | 48 ft | 2 kts | 122° |
| 2026-05-01 08:44 | 53.62954 | 10.00262 | 48 ft | 0 kts | 122° |